Time;durP1;ratioP1;P1;durP2;ratioP2;P2;SDS_P1;SDS_P2;PMS_P1;PMS_P2;Temp;Humidity;BMP_temperature;BMP_pressure;BME280_temperature;BME280_humidity;BME280_pressure;Samples;Min_cycle;Max_cycle;Signal;HPM_P1;HPM_P2
2022/02/03 00:01:25;;;;;;;6.82;3.40;;;8.10;99.90;;;;;;5041740;28;20209;-78
2022/02/03 00:04:01;;;;;;;1.08;1.08;;;8.10;99.90;;;;;;5042381;28;20596;-78
2022/02/03 00:06:34;;;;;;;8.88;4.88;;;8.10;99.90;;;;;;5042555;28;20549;-77
2022/02/03 00:09:24;;;;;;;2.15;1.90;;;8.10;99.90;;;;;;5040924;28;20195;-78
2022/02/03 00:23:12;;;;;;;3.75;3.55;;;8.20;99.90;;;;;;5034673;28;20240;-78
2022/02/03 00:25:45;;;;;;;3.45;3.15;;;8.20;99.90;;;;;;5034856;28;20616;-77
2022/02/03 00:28:21;;;;;;;3.25;2.95;;;8.20;99.90;;;;;;5034378;28;20656;-78
2022/02/03 00:31:04;;;;;;;6.28;5.55;;;8.20;99.90;;;;;;5034966;28;20782;-78
2022/02/03 00:33:36;;;;;;;1.10;1.00;;;8.20;99.90;;;;;;5034997;28;20751;-78
2022/02/03 00:36:13;;;;;;;1.13;1.10;;;8.20;99.90;;;;;;5034687;28;20183;-79
2022/02/03 00:48:15;;;;;;;2.63;1.65;;;8.30;99.90;;;;;;5034663;28;20612;-78
2022/02/03 00:49:58;;;;;;;6.78;5.57;;;8.30;99.90;;;;;;5033651;28;20633;-78
2022/02/03 00:52:26;;;;;;;12.68;6.05;;;8.30;99.90;;;;;;5034261;28;20216;-78
2022/02/03 00:54:53;;;;;;;0.50;0.47;;;8.30;99.90;;;;;;5034268;28;20226;-78
2022/02/03 00:57:30;;;;;;;4.63;3.15;;;8.30;99.90;;;;;;5034076;28;20260;-77
2022/02/03 01:00:02;;;;;;;9.88;4.55;;;8.30;99.90;;;;;;5033262;28;20182;-79
2022/02/03 01:02:30;;;;;;;7.13;3.60;;;8.30;99.90;;;;;;5034207;28;20276;-78
2022/02/03 01:04:58;;;;;;;3.50;2.67;;;8.30;99.90;;;;;;5034142;28;20194;-79
2022/02/03 01:07:26;;;;;;;6.78;3.42;;;8.40;99.90;;;;;;5033980;28;20199;-78
2022/02/03 01:10:06;;;;;;;2.15;2.05;;;8.40;99.90;;;;;;5033255;28;20205;-78
2022/02/03 01:12:42;;;;;;;0.50;0.40;;;8.40;99.90;;;;;;5033795;28;20604;-78
2022/02/03 01:15:19;;;;;;;17.80;2.65;;;8.40;99.90;;;;;;5034027;28;20300;-78
2022/02/03 01:17:55;;;;;;;2.05;1.95;;;8.40;99.90;;;;;;5034003;28;20430;-78
2022/02/03 01:34:39;;;;;;;3.42;3.17;;;8.50;99.90;;;;;;5033438;28;20221;-78
2022/02/03 01:45:37;;;;;;;8.15;5.50;;;8.50;99.90;;;;;;5032511;28;20186;-79
2022/02/03 01:48:20;;;;;;;8.93;4.88;;;8.50;99.90;;;;;;5033114;28;20211;-78
2022/02/03 01:53:35;;;;;;;4.30;2.58;;;8.50;99.90;;;;;;5033056;28;20683;-78
2022/02/03 01:56:04;;;;;;;1.95;1.80;;;8.50;99.90;;;;;;5032930;28;20214;-78
2022/02/03 01:58:38;;;;;;;9.93;3.45;;;8.50;99.90;;;;;;5033295;28;20198;-79
2022/02/03 02:01:06;;;;;;;2.83;2.72;;;8.50;99.90;;;;;;5034020;28;20201;-78
2022/02/03 02:03:39;;;;;;;4.80;2.80;;;8.50;99.90;;;;;;5033007;28;20589;-78
2022/02/03 02:06:19;;;;;;;9.32;7.38;;;8.50;99.90;;;;;;5033139;28;20248;-78
2022/02/03 02:09:04;;;;;;;4.00;3.10;;;8.50;99.90;;;;;;5034559;28;20202;-79
2022/02/03 02:11:46;;;;;;;9.55;4.25;;;8.50;99.90;;;;;;5034646;28;20183;-79
2022/02/03 02:14:48;;;;;;;3.80;2.78;;;8.50;99.90;;;;;;5033305;28;20205;-78
2022/02/03 02:36:51;;;;;;;3.55;2.70;;;8.50;99.90;;;;;;5032547;28;20565;-78
2022/02/03 02:37:16;;;;;;;2.00;1.58;;;8.50;99.90;;;;;;5032457;28;20184;-78
2022/02/03 02:40:18;;;;;;;6.80;3.40;;;8.40;99.90;;;;;;5032149;28;20175;-78
2022/02/03 02:42:58;;;;;;;9.38;6.43;;;8.50;99.90;;;;;;5032490;28;20229;-78
2022/02/03 02:45:32;;;;;;;6.78;2.60;;;8.40;99.90;;;;;;5032324;28;20193;-78
2022/02/03 02:48:08;;;;;;;3.95;3.72;;;8.40;99.90;;;;;;5032634;28;20582;-78
2022/02/03 02:50:44;;;;;;;1.95;1.25;;;8.40;99.90;;;;;;5032224;28;20183;-78
2022/02/03 02:53:26;;;;;;;2.25;2.15;;;8.50;99.90;;;;;;5032317;28;20229;-78
2022/02/03 02:56:13;;;;;;;9.35;5.75;;;8.50;99.90;;;;;;5032922;28;20228;-80
2022/02/03 02:59:02;;;;;;;6.72;3.65;;;8.40;99.90;;;;;;5035251;28;20203;-78
2022/02/03 03:28:50;;;;;;;5.45;3.50;;;8.40;99.90;;;;;;5027999;28;20556;-77
2022/02/03 03:29:46;;;;;;;0.40;0.30;;;8.40;99.90;;;;;;5035409;28;20179;-78
2022/02/03 03:32:33;;;;;;;9.52;5.50;;;8.40;99.90;;;;;;5035576;28;20280;-78
2022/02/03 03:35:12;;;;;;;0.80;0.43;;;8.40;99.90;;;;;;5035565;28;20850;-79
2022/02/03 03:37:45;;;;;;;3.90;2.15;;;8.40;99.90;;;;;;5035829;28;20199;-78
2022/02/03 03:40:13;;;;;;;4.22;3.42;;;8.40;99.90;;;;;;5034988;28;20293;-78
2022/02/03 03:42:52;;;;;;;0.50;0.50;;;8.40;99.90;;;;;;5035689;28;20269;-78
2022/02/03 03:45:21;;;;;;;1.90;1.80;;;8.40;99.90;;;;;;5035730;28;20662;-77
2022/02/03 03:47:52;;;;;;;3.78;3.53;;;8.50;99.90;;;;;;5035389;28;20723;-78
2022/02/03 03:50:18;;;;;;;8.15;6.38;;;8.50;99.90;;;;;;5035293;28;20331;-78
2022/02/03 03:52:54;;;;;;;3.13;2.92;;;8.50;99.90;;;;;;5035248;28;20703;-78
2022/02/03 03:55:33;;;;;;;6.75;4.20;;;8.40;99.90;;;;;;5035400;28;20243;-76
2022/02/03 03:58:21;;;;;;;6.70;4.18;;;8.40;99.90;;;;;;5035787;28;20194;-78
2022/02/03 04:30:15;;;;;;;2.20;2.05;;;8.20;99.90;;;;;;5033863;28;20263;-79
2022/02/03 04:38:58;;;;;;;11.50;5.00;;;8.20;99.90;;;;;;5024965;28;20190;-78
2022/02/03 04:54:07;;;;;;;0.40;0.40;;;8.10;99.90;;;;;;5033803;28;20233;-78
2022/02/03 04:57:02;;;;;;;11.93;2.42;;;8.10;99.90;;;;;;5033482;28;20217;-78
2022/02/03 05:02:56;;;;;;;1.80;1.70;;;8.10;99.90;;;;;;5033216;28;20217;-78
2022/02/03 05:05:45;;;;;;;6.60;6.15;;;8.10;99.90;;;;;;5033264;28;20677;-77
2022/02/03 05:08:36;;;;;;;1.25;1.13;;;8.00;99.90;;;;;;5033174;28;20297;-78
2022/02/03 05:11:34;;;;;;;1.58;0.82;;;8.00;99.90;;;;;;5033257;28;20249;-77
2022/02/03 05:17:18;;;;;;;2.67;2.47;;;8.00;99.90;;;;;;5029791;28;20218;-77
2022/02/03 05:23:55;;;;;;;5.43;3.30;;;8.00;99.90;;;;;;4993627;28;20218;-78
2022/02/03 05:26:55;;;;;;;7.32;2.28;;;7.90;99.90;;;;;;5032876;28;20263;-77
2022/02/03 05:42:17;;;;;;;8.70;4.60;;;7.90;99.90;;;;;;5032258;28;20719;-77
2022/02/03 06:04:37;;;;;;;7.55;3.38;;;7.90;99.90;;;;;;5028806;28;20286;-77
2022/02/03 06:07:38;;;;;;;0.73;0.73;;;7.90;99.90;;;;;;5033904;28;20217;-79
2022/02/03 06:13:05;;;;;;;1.08;0.77;;;7.80;99.90;;;;;;5031931;28;20282;-76
2022/02/03 06:15:39;;;;;;;1.83;1.73;;;7.80;99.90;;;;;;5032699;28;20252;-79
2022/02/03 06:21:22;;;;;;;0.50;0.50;;;7.80;99.90;;;;;;5031581;28;20181;-78
2022/02/03 06:24:00;;;;;;;7.28;3.97;;;7.70;99.90;;;;;;5031409;28;20212;-78
2022/02/03 06:29:31;;;;;;;1.05;0.90;;;7.60;99.90;;;;;;4991177;28;20273;-77
2022/02/03 06:31:58;;;;;;;0.93;0.50;;;7.70;99.90;;;;;;4992259;28;20748;-78
2022/02/03 06:36:55;;;;;;;3.33;1.25;;;7.60;99.90;;;;;;5060765;22;20581;-80
2022/02/03 06:39:23;;;;;;;1.35;1.15;;;7.60;99.90;;;;;;5013180;28;20751;-81
2022/02/03 06:41:54;;;;;;;0.40;0.30;;;7.60;99.90;;;;;;5017258;28;20192;-80
2022/02/03 06:44:26;;;;;;;1.45;1.35;;;7.60;99.90;;;;;;5017131;28;20202;-81
2022/02/03 06:46:56;;;;;;;11.10;2.22;;;7.60;99.90;;;;;;5016314;28;20272;-79
2022/02/03 06:49:34;;;;;;;0.55;0.52;;;7.60;99.90;;;;;;5015860;28;20203;-80
2022/02/03 06:52:08;;;;;;;0.40;0.35;;;7.60;99.90;;;;;;5016801;28;20195;-80
2022/02/03 06:54:42;;;;;;;0.98;0.98;;;7.60;99.90;;;;;;5016372;28;20206;-80
2022/02/03 06:57:15;;;;;;;2.60;2.40;;;7.60;99.90;;;;;;5016858;28;20704;-80
2022/02/03 06:59:49;;;;;;;4.00;1.85;;;7.60;99.90;;;;;;5016209;28;20212;-80
2022/02/03 07:02:17;;;;;;;1.23;1.13;;;7.60;99.90;;;;;;5017333;28;20198;-80
2022/02/03 07:04:45;;;;;;;0.70;0.50;;;7.60;99.90;;;;;;5017655;28;20210;-82
2022/02/03 07:07:17;;;;;;;0.40;0.30;;;7.50;99.90;;;;;;5017633;28;20266;-80
2022/02/03 07:09:47;;;;;;;1.60;1.50;;;7.50;99.90;;;;;;5015554;28;20207;-80
2022/02/03 07:12:14;;;;;;;1.40;1.30;;;7.50;99.90;;;;;;5016982;28;20253;-79
2022/02/03 07:14:41;;;;;;;1.95;1.85;;;7.50;99.90;;;;;;5016533;28;20556;-81
2022/02/03 07:17:08;;;;;;;0.40;0.30;;;7.50;99.90;;;;;;5015214;28;20306;-80
2022/02/03 07:19:41;;;;;;;2.05;0.88;;;7.50;99.90;;;;;;5016041;28;20237;-78
2022/02/03 07:22:08;;;;;;;3.15;2.97;;;7.50;99.90;;;;;;5017186;28;20253;-81
2022/02/03 07:24:36;;;;;;;1.90;1.73;;;7.50;99.90;;;;;;5017013;28;20199;-82
2022/02/03 07:27:03;;;;;;;4.43;1.25;;;7.50;99.90;;;;;;5016608;28;20216;-81
2022/02/03 07:29:30;;;;;;;0.40;0.38;;;7.50;99.90;;;;;;5016815;28;20198;-81
2022/02/03 07:31:57;;;;;;;1.10;1.00;;;7.40;99.90;;;;;;5017053;28;20251;-81
2022/02/03 07:34:24;;;;;;;5.65;3.03;;;7.40;99.90;;;;;;5016921;28;20229;-81
2022/02/03 07:36:51;;;;;;;0.50;0.50;;;7.40;99.90;;;;;;5014725;28;20219;-80
2022/02/03 07:39:17;;;;;;;0.40;0.30;;;7.40;99.90;;;;;;5015554;28;20499;-81
2022/02/03 07:41:46;;;;;;;1.40;0.98;;;7.40;99.90;;;;;;5015752;28;20201;-81
2022/02/03 07:44:15;;;;;;;1.20;0.93;;;7.40;99.90;;;;;;5015388;28;20203;-81
2022/02/03 07:46:42;;;;;;;0.40;0.35;;;7.50;99.90;;;;;;5019533;28;20218;-80
2022/02/03 07:49:09;;;;;;;0.70;0.70;;;7.50;99.90;;;;;;5019370;28;20286;-80
2022/02/03 07:51:36;;;;;;;0.60;0.60;;;7.40;99.90;;;;;;5019619;28;20288;-80
2022/02/03 07:54:04;;;;;;;3.70;2.80;;;7.50;99.90;;;;;;5020166;28;20213;-81
2022/02/03 07:56:31;;;;;;;2.78;1.23;;;7.50;99.90;;;;;;5019423;28;20221;-76
2022/02/03 07:58:59;;;;;;;1.40;1.02;;;7.50;99.90;;;;;;5019174;28;20573;-77
2022/02/03 08:01:26;;;;;;;3.10;2.20;;;7.40;99.90;;;;;;5019831;28;20203;-82
2022/02/03 08:03:53;;;;;;;0.80;0.70;;;7.40;99.90;;;;;;5019486;28;20227;-81
2022/02/03 08:06:24;;;;;;;1.67;1.58;;;7.40;99.90;;;;;;5019981;28;20787;-80
2022/02/03 08:08:54;;;;;;;0.40;0.30;;;7.40;99.90;;;;;;5021881;28;20203;-80
2022/02/03 08:11:26;;;;;;;5.13;4.60;;;7.50;99.90;;;;;;5019109;28;20617;-80
2022/02/03 08:13:57;;;;;;;0.50;0.47;;;7.50;99.90;;;;;;5019332;28;20755;-80
2022/02/03 08:16:30;;;;;;;4.53;2.85;;;7.40;99.90;;;;;;5019567;28;20225;-81
2022/02/03 08:19:04;;;;;;;8.55;4.25;;;7.40;99.90;;;;;;5017851;28;20207;-78
2022/02/03 08:21:34;;;;;;;2.10;1.90;;;7.40;99.90;;;;;;5019045;28;20290;-82
2022/02/03 08:24:16;;;;;;;4.65;3.17;;;7.40;99.90;;;;;;5017906;28;20202;-80
2022/02/03 08:26:59;;;;;;;0.60;0.57;;;7.40;99.90;;;;;;5018643;28;20226;-80
2022/02/03 08:29:48;;;;;;;3.08;1.63;;;7.40;99.90;;;;;;5018769;28;20627;-81
2022/02/03 08:32:21;;;;;;;5.32;4.35;;;7.40;99.90;;;;;;5018491;28;20228;-81
2022/02/03 08:35:07;;;;;;;2.53;2.33;;;7.40;99.90;;;;;;5017299;28;20632;-80
2022/02/03 08:37:43;;;;;;;3.97;3.53;;;7.40;99.90;;;;;;5017518;28;20237;-78
2022/02/03 08:40:15;;;;;;;2.10;1.75;;;7.30;99.90;;;;;;5017607;28;20201;-81
2022/02/03 08:42:42;;;;;;;2.53;2.28;;;7.30;99.90;;;;;;5018507;28;20632;-79
2022/02/03 08:45:10;;;;;;;5.10;3.20;;;7.30;99.90;;;;;;5017351;28;20275;-81
2022/02/03 08:47:38;;;;;;;5.35;4.82;;;7.30;99.90;;;;;;5016843;28;20198;-81
2022/02/03 08:50:08;;;;;;;5.00;3.78;;;7.30;99.90;;;;;;5017447;28;20247;-81
2022/02/03 08:52:41;;;;;;;1.52;1.42;;;7.30;99.90;;;;;;5017798;28;20220;-81
2022/02/03 08:55:21;;;;;;;1.50;1.45;;;7.30;99.90;;;;;;5017135;28;20699;-81
2022/02/03 08:58:15;;;;;;;1.65;1.58;;;7.40;99.90;;;;;;5016677;28;20209;-81
2022/02/03 09:28:02;;;;;;;5.00;2.70;;;7.40;99.90;;;;;;5016513;28;20190;-81
2022/02/03 09:37:19;;;;;;;5.38;3.00;;;7.60;99.90;;;;;;5017422;28;20285;-81
2022/02/03 09:59:16;;;;;;;5.70;2.30;;;7.60;99.90;;;;;;4990111;28;20190;-81
2022/02/03 10:01:50;;;;;;;2.80;1.85;;;7.60;99.90;;;;;;5019144;28;20189;-82
2022/02/03 10:04:23;;;;;;;3.38;3.17;;;7.70;99.90;;;;;;5027657;28;20225;-80
2022/02/03 10:06:57;;;;;;;3.97;1.75;;;7.80;99.90;;;;;;5028701;28;20222;-81
2022/02/03 10:09:38;;;;;;;6.82;4.75;;;7.80;99.90;;;;;;5031200;28;20206;-82
2022/02/03 10:12:06;;;;;;;0.65;0.65;;;7.80;99.90;;;;;;5032088;28;20189;-81
2022/02/03 10:14:34;;;;;;;2.83;2.72;;;7.80;99.90;;;;;;5030237;28;20198;-80
2022/02/03 10:17:02;;;;;;;6.55;4.20;;;7.90;99.90;;;;;;5031623;28;20215;-82
2022/02/03 10:19:34;;;;;;;3.90;3.50;;;7.90;99.90;;;;;;5029352;28;20225;-81
2022/02/03 10:22:02;;;;;;;3.35;3.15;;;8.00;99.90;;;;;;5019874;28;20264;-82
2022/02/03 10:24:34;;;;;;;6.13;1.95;;;8.00;99.90;;;;;;5017574;28;20217;-80
2022/02/03 10:27:02;;;;;;;3.85;3.50;;;8.10;99.90;;;;;;5018807;28;20195;-81
2022/02/03 10:29:35;;;;;;;1.08;1.08;;;8.10;99.90;;;;;;5019248;28;20199;-82
2022/02/03 10:32:02;;;;;;;0.73;0.73;;;8.10;99.90;;;;;;5017406;28;20213;-81
2022/02/03 10:34:32;;;;;;;0.50;0.50;;;8.10;99.90;;;;;;5016613;28;20202;-81
2022/02/03 10:37:07;;;;;;;2.33;2.22;;;8.20;99.90;;;;;;5016514;28;20226;-81
2022/02/03 10:42:51;;;;;;;4.90;2.75;;;8.30;99.90;;;;;;5010322;28;20196;-82
2022/02/03 10:51:02;;;;;;;1.83;1.73;;;8.10;99.90;;;;;;4995476;28;20195;-81
2022/02/03 10:53:44;;;;;;;7.65;2.70;;;8.00;99.90;;;;;;5017716;28;20589;-81
2022/02/03 10:56:28;;;;;;;2.25;2.15;;;8.00;99.90;;;;;;5016841;28;20325;-79
2022/02/03 10:59:22;;;;;;;2.60;1.73;;;7.90;99.90;;;;;;5015988;28;20199;-82
2022/02/03 11:02:06;;;;;;;0.75;0.75;;;7.90;99.90;;;;;;5017452;28;20205;-83
2022/02/03 11:07:28;;;;;;;3.53;2.10;;;7.90;99.90;;;;;;5018645;28;20187;-81
2022/02/03 11:10:02;;;;;;;0.73;0.73;;;7.80;99.90;;;;;;5017282;28;20202;-80
2022/02/03 11:12:31;;;;;;;3.15;1.70;;;7.90;99.90;;;;;;5017218;28;20237;-79
2022/02/03 11:15:01;;;;;;;3.28;1.75;;;7.80;99.90;;;;;;5017887;28;20245;-79
2022/02/03 11:17:30;;;;;;;8.40;2.58;;;7.80;99.90;;;;;;5017644;28;20223;-81
2022/02/03 11:19:59;;;;;;;1.25;0.98;;;7.80;99.90;;;;;;5018998;28;20205;-80
2022/02/03 11:22:31;;;;;;;4.45;2.25;;;7.80;99.90;;;;;;5021460;28;20344;-79
2022/02/03 11:25:15;;;;;;;2.35;1.67;;;7.80;99.90;;;;;;5021245;28;20232;-80
2022/02/03 11:28:10;;;;;;;4.63;1.80;;;7.80;99.90;;;;;;5020952;28;20189;-80
2022/02/03 11:50:40;;;;;;;1.60;0.70;;;7.50;99.90;;;;;;5021573;28;20187;-81
2022/02/03 11:53:53;;;;;;;1.05;1.02;;;7.40;99.90;;;;;;5021326;28;20200;-81
2022/02/03 11:56:42;;;;;;;5.50;2.17;;;7.30;99.90;;;;;;5021364;28;20287;-80
2022/02/03 12:02:53;;;;;;;2.60;2.15;;;7.20;99.90;;;;;;5020089;28;20264;-80
2022/02/03 12:17:29;;;;;;;0.55;0.55;;;7.10;99.90;;;;;;5022046;28;20198;-79
2022/02/03 12:20:11;;;;;;;1.75;1.65;;;7.10;99.90;;;;;;5022049;28;20215;-81
2022/02/03 12:25:43;;;;;;;1.33;1.23;;;7.20;99.90;;;;;;5015499;28;20215;-80
2022/02/03 12:28:33;;;;;;;1.63;1.15;;;7.10;99.90;;;;;;5020054;28;20285;-81
2022/02/03 12:31:37;;;;;;;0.50;0.50;;;7.10;99.90;;;;;;5018462;28;20218;-81
2022/02/03 12:37:07;;;;;;;1.58;1.05;;;7.10;99.90;;;;;;5020096;28;20232;-79
2022/02/03 12:39:46;;;;;;;3.78;0.95;;;7.00;99.90;;;;;;5020254;28;20195;-82
2022/02/03 12:42:21;;;;;;;1.00;1.00;;;7.00;99.90;;;;;;5018975;28;20682;-81
2022/02/03 12:44:50;;;;;;;2.85;2.65;;;7.00;99.90;;;;;;5019527;28;20705;-82
2022/02/03 12:47:18;;;;;;;0.98;0.85;;;6.90;99.90;;;;;;5017827;28;20223;-80
2022/02/03 12:49:46;;;;;;;4.70;1.70;;;6.80;99.90;;;;;;5018449;28;20283;-81
2022/02/03 12:52:31;;;;;;;6.15;3.55;;;6.80;99.90;;;;;;5018611;28;20206;-81
2022/02/03 12:55:00;;;;;;;1.25;0.60;;;6.70;99.90;;;;;;5019528;28;20301;-81
2022/02/03 12:57:32;;;;;;;2.58;1.88;;;6.70;99.90;;;;;;5018340;28;20752;-79
2022/02/03 13:00:12;;;;;;;3.00;2.65;;;6.70;99.90;;;;;;5019025;28;20204;-82
2022/02/03 13:02:40;;;;;;;2.45;1.50;;;6.70;99.90;;;;;;5019303;28;20675;-81
2022/02/03 13:05:07;;;;;;;3.72;2.17;;;6.70;99.90;;;;;;5019036;28;20227;-81
2022/02/03 13:07:34;;;;;;;0.90;0.70;;;6.70;99.90;;;;;;5019741;28;20260;-81
2022/02/03 13:10:11;;;;;;;2.05;1.65;;;6.70;99.90;;;;;;5018103;28;20655;-81
2022/02/03 13:12:46;;;;;;;1.13;0.52;;;6.70;99.90;;;;;;5018533;28;20230;-82
2022/02/03 13:15:13;;;;;;;1.50;1.40;;;6.70;99.90;;;;;;5017958;28;20691;-81
2022/02/03 13:17:53;;;;;;;2.28;1.33;;;6.70;99.90;;;;;;5018165;28;20779;-81
2022/02/03 13:20:24;;;;;;;1.08;1.08;;;6.70;99.90;;;;;;5018330;28;20200;-81
2022/02/03 13:23:00;;;;;;;0.50;0.40;;;6.80;99.90;;;;;;5018449;28;20199;-82
2022/02/03 13:25:34;;;;;;;0.73;0.73;;;6.80;99.90;;;;;;5019387;28;20251;-81
2022/02/03 13:28:05;;;;;;;1.88;1.77;;;6.90;99.90;;;;;;5019160;28;20202;-80
2022/02/03 13:30:42;;;;;;;0.70;0.70;;;6.90;99.90;;;;;;5017782;28;20204;-81
2022/02/03 13:33:11;;;;;;;3.25;1.60;;;6.90;99.90;;;;;;5021055;28;20202;-81
2022/02/03 13:35:51;;;;;;;2.05;1.52;;;6.80;99.90;;;;;;5023875;28;20316;-81
2022/02/03 13:38:26;;;;;;;3.67;3.47;;;6.90;99.90;;;;;;5022171;28;20216;-79
2022/02/03 13:41:14;;;;;;;3.50;3.22;;;6.90;99.90;;;;;;5023988;28;20194;-80
2022/02/03 13:43:42;;;;;;;3.90;2.97;;;7.00;99.90;;;;;;5019837;28;20190;-81
2022/02/03 13:46:10;;;;;;;12.25;1.08;;;7.10;99.90;;;;;;5021278;28;20241;-81
2022/02/03 13:48:39;;;;;;;3.15;2.85;;;7.20;99.90;;;;;;5022801;28;20297;-77
2022/02/03 13:51:09;;;;;;;1.77;1.67;;;7.30;99.90;;;;;;5022496;28;20260;-80
2022/02/03 13:53:40;;;;;;;3.20;2.47;;;7.40;99.90;;;;;;5018771;28;20253;-81
2022/02/03 14:16:10;;;;;;;3.08;1.00;;;7.60;99.90;;;;;;5022937;28;20554;-79
2022/02/03 14:19:00;;;;;;;2.78;2.58;;;7.60;99.90;;;;;;5018822;28;20221;-79
2022/02/03 14:21:29;;;;;;;0.98;0.73;;;7.50;99.90;;;;;;5022764;28;20258;-81
2022/02/03 14:26:59;;;;;;;3.90;2.40;;;7.50;99.90;;;;;;5022220;28;20240;-81
2022/02/03 14:29:30;;;;;;;0.90;0.90;;;7.40;99.90;;;;;;5025006;28;20202;-80
2022/02/03 14:32:02;;;;;;;2.03;1.95;;;7.40;99.90;;;;;;5021539;28;20244;-80
2022/02/03 14:34:31;;;;;;;3.17;1.23;;;7.50;99.90;;;;;;5018197;28;20205;-81
2022/02/03 14:37:04;;;;;;;3.15;1.63;;;7.50;99.90;;;;;;5017979;28;20220;-81
2022/02/03 14:39:46;;;;;;;2.60;2.00;;;7.50;99.90;;;;;;5017660;28;20220;-81
2022/02/03 14:42:13;;;;;;;2.35;2.20;;;7.40;99.90;;;;;;5018522;28;20222;-81
2022/02/03 14:44:41;;;;;;;1.27;1.20;;;7.40;99.90;;;;;;5017071;28;20657;-81
2022/02/03 14:47:09;;;;;;;5.97;2.95;;;7.50;99.90;;;;;;5018166;28;20297;-81
2022/02/03 14:49:39;;;;;;;1.83;1.33;;;7.40;99.90;;;;;;5021301;28;20298;-82
2022/02/03 14:52:14;;;;;;;2.67;2.47;;;7.30;99.90;;;;;;5019451;28;20222;-81
2022/02/03 15:00:14;;;;;;;2.38;1.08;;;7.40;99.90;;;;;;5021579;28;20201;-81
2022/02/03 15:02:41;;;;;;;1.35;1.25;;;7.40;99.90;;;;;;5021547;28;20203;-81
2022/02/03 15:05:12;;;;;;;1.90;1.60;;;7.30;99.90;;;;;;5022095;28;20219;-81
2022/02/03 15:07:42;;;;;;;5.68;3.15;;;7.40;99.90;;;;;;5021018;28;20545;-80
2022/02/03 15:10:30;;;;;;;2.55;2.13;;;7.30;99.90;;;;;;5019735;28;20218;-81
2022/02/03 15:13:03;;;;;;;2.55;1.40;;;7.30;99.90;;;;;;5020848;28;20209;-81
2022/02/03 15:15:31;;;;;;;2.17;1.98;;;7.20;99.90;;;;;;5020805;28;20227;-82
2022/02/03 15:17:58;;;;;;;0.90;0.63;;;7.20;99.90;;;;;;5020642;28;20276;-82
2022/02/03 15:20:25;;;;;;;1.95;1.85;;;7.20;99.90;;;;;;5020410;28;20545;-81
2022/02/03 15:22:52;;;;;;;0.60;0.57;;;7.20;99.90;;;;;;5019958;28;20285;-81
2022/02/03 15:25:19;;;;;;;1.60;1.38;;;7.20;99.90;;;;;;5020401;28;20224;-81
2022/02/03 15:27:46;;;;;;;2.25;1.60;;;7.20;99.90;;;;;;5019782;28;20199;-81
2022/02/03 15:30:15;;;;;;;0.82;0.80;;;7.10;99.90;;;;;;5020093;28;20371;-80
2022/02/03 15:32:45;;;;;;;5.13;2.83;;;7.10;99.90;;;;;;5020180;28;20193;-81
2022/02/03 15:35:20;;;;;;;2.65;1.20;;;7.00;99.90;;;;;;5020950;28;20218;-80
2022/02/03 15:37:47;;;;;;;0.50;0.50;;;7.00;99.90;;;;;;5020977;28;20314;-80
2022/02/03 15:40:19;;;;;;;1.05;0.90;;;7.00;99.90;;;;;;5020158;28;20225;-80
2022/02/03 15:42:54;;;;;;;1.50;1.40;;;7.00;99.90;;;;;;5018772;28;20201;-80
2022/02/03 15:45:21;;;;;;;1.75;1.10;;;7.00;99.90;;;;;;5018104;28;20214;-82
2022/02/03 15:47:54;;;;;;;1.60;1.35;;;7.00;99.90;;;;;;5019772;28;20658;-81
2022/02/03 16:18:08;;;;;;;4.85;3.03;;;6.80;99.90;;;;;;5019296;28;20269;-79
2022/02/03 16:20:41;;;;;;;1.40;0.95;;;6.80;99.90;;;;;;5017616;28;20192;-81
2022/02/03 16:23:26;;;;;;;1.98;1.48;;;6.80;99.90;;;;;;5020138;28;20230;-82
2022/02/03 16:26:33;;;;;;;4.28;2.67;;;6.80;99.90;;;;;;5019705;28;20220;-79
2022/02/03 16:43:22;;;;;;;7.95;3.15;;;6.90;99.90;;;;;;5018747;28;20185;-80
2022/02/03 16:51:21;;;;;;;1.88;1.73;;;6.90;99.90;;;;;;5018372;28;20181;-80
2022/02/03 16:53:49;;;;;;;13.60;1.85;;;6.90;99.90;;;;;;5018668;28;20196;-79
2022/02/03 16:56:17;;;;;;;1.48;1.38;;;6.90;99.90;;;;;;5018014;28;20227;-80
2022/02/03 16:58:46;;;;;;;2.45;1.90;;;6.90;99.90;;;;;;5017180;28;20217;-80
2022/02/03 17:01:12;;;;;;;1.83;1.73;;;6.90;99.90;;;;;;5017810;28;20198;-80
2022/02/03 17:03:39;;;;;;;2.92;2.67;;;6.90;99.90;;;;;;5017838;28;20196;-80
2022/02/03 17:06:06;;;;;;;1.23;1.17;;;6.80;99.90;;;;;;5017397;28;20236;-80
2022/02/03 17:08:33;;;;;;;6.35;2.67;;;6.90;99.90;;;;;;5017481;28;20625;-80
2022/02/03 17:11:01;;;;;;;2.03;1.92;;;6.90;99.90;;;;;;5016946;28;20684;-78
2022/02/03 17:13:28;;;;;;;1.77;1.30;;;6.90;99.90;;;;;;5016840;28;20197;-81
2022/02/03 17:15:54;;;;;;;2.30;2.10;;;6.90;99.90;;;;;;5017517;28;20246;-80
2022/02/03 17:18:21;;;;;;;3.83;0.80;;;6.90;99.90;;;;;;5017685;28;20268;-80
2022/02/03 17:20:48;;;;;;;2.92;2.17;;;6.90;99.90;;;;;;5016672;28;20203;-79
2022/02/03 17:23:18;;;;;;;3.08;2.83;;;6.90;99.90;;;;;;5017283;28;20206;-79
2022/02/03 17:25:50;;;;;;;3.60;3.30;;;6.90;99.90;;;;;;5016023;28;20218;-80
2022/02/03 17:28:23;;;;;;;1.48;1.35;;;6.90;99.90;;;;;;5017352;28;20652;-80
2022/02/03 17:30:55;;;;;;;15.65;3.40;;;6.90;99.90;;;;;;5017428;28;20602;-80
2022/02/03 17:53:35;;;;;;;5.10;1.45;;;6.50;99.90;;;;;;5016208;28;20283;-80
2022/02/03 18:09:37;;;;;;;3.72;2.63;;;6.40;99.90;;;;;;5014624;28;20650;-80
2022/02/03 18:18:04;;;;;;;2.28;1.83;;;6.40;99.90;;;;;;5015818;28;20181;-80
2022/02/03 18:26:27;;;;;;;4.45;2.25;;;6.40;99.90;;;;;;5016482;28;20208;-80
2022/02/03 18:34:40;;;;;;;2.05;1.95;;;6.30;99.90;;;;;;4993110;28;20191;-80
2022/02/03 18:37:17;;;;;;;3.40;3.15;;;6.30;99.90;;;;;;4318257;28;10001062;-80
2022/02/03 18:51:03;;;;;;;2.97;2.60;;;6.30;99.90;;;;;;5010668;28;20284;-81
2022/02/03 18:53:35;;;;;;;6.00;3.67;;;6.30;99.90;;;;;;5012478;28;20268;-79
2022/02/03 18:56:09;;;;;;;1.50;1.40;;;6.30;99.90;;;;;;5013320;28;20309;-81
2022/02/03 18:58:44;;;;;;;2.85;2.65;;;6.20;99.90;;;;;;5015436;28;20216;-80
2022/02/03 19:01:37;;;;;;;5.25;4.10;;;6.20;99.90;;;;;;5015221;28;20199;-80
2022/02/03 19:56:08;;;;;;;7.55;4.22;;;6.20;99.90;;;;;;5002812;28;20184;-78
2022/02/03 19:57:46;;;;;;;4.80;4.45;;;6.20;99.90;;;;;;4996299;28;20235;-80
2022/02/03 20:05:29;;;;;;;7.53;5.57;;;6.10;99.90;;;;;;4995589;28;20203;-80
2022/02/03 20:08:01;;;;;;;2.95;2.75;;;6.10;99.90;;;;;;4996753;28;20186;-80
2022/02/03 20:10:31;;;;;;;4.80;4.60;;;6.10;99.90;;;;;;4995791;28;20184;-79
2022/02/03 20:12:59;;;;;;;6.50;5.93;;;6.10;99.90;;;;;;4996465;28;20210;-80
2022/02/03 20:15:26;;;;;;;2.03;1.25;;;6.10;99.90;;;;;;4995392;28;20229;-80
2022/02/03 20:17:53;;;;;;;7.03;6.45;;;6.10;99.90;;;;;;4997000;28;20198;-80
2022/02/03 20:20:20;;;;;;;14.68;10.27;;;6.10;99.90;;;;;;4995251;28;20291;-80
2022/02/03 20:22:48;;;;;;;4.78;4.10;;;6.10;99.90;;;;;;5000562;28;20205;-76
2022/02/03 20:25:15;;;;;;;3.75;2.50;;;6.10;99.90;;;;;;5000176;28;20220;-80
2022/02/03 20:27:42;;;;;;;6.20;3.80;;;6.10;99.90;;;;;;4996917;28;20196;-81
2022/02/03 20:30:12;;;;;;;7.78;7.20;;;6.10;99.90;;;;;;4995099;28;20734;-80
2022/02/03 20:32:38;;;;;;;7.20;4.68;;;6.10;99.90;;;;;;4997066;28;20204;-81
2022/02/03 20:35:06;;;;;;;3.90;3.42;;;6.10;99.90;;;;;;5001597;28;20228;-80
2022/02/03 20:37:33;;;;;;;15.75;8.70;;;6.10;99.90;;;;;;5015166;28;20735;-80
2022/02/03 20:40:00;;;;;;;7.72;4.00;;;6.10;99.90;;;;;;5013941;28;20632;-80
2022/02/03 20:42:26;;;;;;;3.50;3.28;;;6.10;99.90;;;;;;5015813;28;20191;-79
2022/02/03 20:44:53;;;;;;;1.80;1.70;;;6.10;99.90;;;;;;5021555;28;20526;-80
2022/02/03 20:47:24;;;;;;;8.57;4.97;;;6.10;99.90;;;;;;5014913;28;20200;-80
2022/02/03 20:49:51;;;;;;;7.65;6.53;;;6.10;99.90;;;;;;5014484;28;20638;-78
2022/02/03 20:52:18;;;;;;;5.30;4.82;;;6.20;99.90;;;;;;5014517;28;20211;-79
2022/02/03 20:54:45;;;;;;;12.95;8.80;;;6.20;99.90;;;;;;5014702;28;20196;-80
2022/02/03 20:57:12;;;;;;;6.25;5.57;;;6.20;99.90;;;;;;5015976;28;20566;-80
2022/02/03 20:59:56;;;;;;;2.25;2.05;;;6.20;99.90;;;;;;5018105;28;20577;-79
2022/02/03 21:02:36;;;;;;;7.78;4.35;;;6.20;99.90;;;;;;5015912;28;20195;-80
2022/02/03 21:05:08;;;;;;;6.03;5.05;;;6.20;99.90;;;;;;5014279;28;20220;-80
2022/02/03 21:07:36;;;;;;;5.25;4.35;;;6.20;99.90;;;;;;5014845;28;20228;-80
2022/02/03 21:10:07;;;;;;;3.72;3.42;;;6.20;99.90;;;;;;5016328;28;20485;-80
2022/02/03 21:12:34;;;;;;;7.57;5.05;;;6.20;99.90;;;;;;5014121;28;20251;-80
2022/02/03 21:15:01;;;;;;;3.05;2.75;;;6.20;99.90;;;;;;5014987;28;20228;-80
2022/02/03 21:17:30;;;;;;;3.33;2.80;;;6.30;99.90;;;;;;5014932;28;20206;-80
2022/02/03 21:20:05;;;;;;;6.28;5.78;;;6.30;99.90;;;;;;5013960;28;20319;-80
2022/02/03 21:22:32;;;;;;;0.80;0.80;;;6.30;99.90;;;;;;5014132;28;20184;-80
2022/02/03 21:25:03;;;;;;;5.07;4.65;;;6.20;99.90;;;;;;5013345;28;20217;-80
2022/02/03 21:27:32;;;;;;;13.80;6.85;;;6.30;99.90;;;;;;5014338;28;20199;-79
2022/02/03 21:30:02;;;;;;;8.98;6.63;;;6.20;99.90;;;;;;5013085;28;20296;-80
2022/02/03 21:32:30;;;;;;;9.43;3.83;;;6.30;99.90;;;;;;5013976;28;20372;-80
2022/02/03 21:34:56;;;;;;;6.68;2.90;;;6.30;99.90;;;;;;5013366;28;20644;-79
2022/02/03 21:37:23;;;;;;;7.30;6.60;;;6.30;99.90;;;;;;5013294;28;20192;-80
2022/02/03 21:39:54;;;;;;;3.50;3.30;;;6.30;99.90;;;;;;5013009;28;20274;-80